ENTC/TOS METAR and TAF weather

Enter ICAO airport designator
Station Type Date Time Source
ENTC METAR 2018/04/19 12:50 UTC NOAA

ENTC 191250Z 02011KT 9999 BKN013 02/M01 Q1024 NOSIG RMK WIND 2600FT 16005KT


Station Type Date Time Source
ENTC Decoded METAR 2018/04/19 12:50 UTC NOAA

Tromso / Langnes, Norway (ENTC) 69-41N 018-55E 10M
Apr 19, 2018 - 08:50 AM EDT / 2018.04.19 1250 UTC
Wind: from the NNE (020 degrees) at 13 MPH (11 KT):0
Visibility: greater than 7 mile(s):0
Sky conditions: mostly cloudy
Temperature: 35 F (2 C)
Windchill: 26 F (-3 C):1
Dew Point: 30 F (-1 C)
Relative Humidity: 80%
Pressure (altimeter): 30.24 in. Hg (1024 hPa)
ob: ENTC 191250Z 02011KT 9999 BKN013 02/M01 Q1024 NOSIG RMK WIND 2600FT 16005KT
cycle: 13

Station Type Date Time Source
ENTC TAF 2018/04/19 12:57 UTC NOAA

TAF ENTC 191100Z 1912/2012 02009KT 9999 FEW012 BKN015
TEMPO 1912/1924 -RADZ BKN012
TEMPO 2000/2012 4000 RADZ BKN008 PROB40
TEMPO 2003/2012 1000 FG VV003


Example: see airport list